sensor_id;sensor_type;location;lat;lon;timestamp;pressure;altitude;pressure_sealevel;temperature;humidity
20612;BME280;10465;42.686;23.364;2022-12-07T00:01:11;94966.81;;;7.47;85.68
20612;BME280;10465;42.686;23.364;2022-12-07T00:03:38;94981.16;;;7.60;85.85
20612;BME280;10465;42.686;23.364;2022-12-07T00:06:06;94992.69;;;7.64;85.75
20612;BME280;10465;42.686;23.364;2022-12-07T00:08:33;94985.56;;;7.64;85.71
20612;BME280;10465;42.686;23.364;2022-12-07T00:13:29;94984.63;;;7.55;86.01
20612;BME280;10465;42.686;23.364;2022-12-07T00:15:54;94977.78;;;7.54;86.34
20612;BME280;10465;42.686;23.364;2022-12-07T00:18:20;94968.66;;;7.47;86.58
20612;BME280;10465;42.686;23.364;2022-12-07T00:20:45;94965.75;;;7.48;86.15
20612;BME280;10465;42.686;23.364;2022-12-07T00:23:11;94978.84;;;7.53;86.41
20612;BME280;10465;42.686;23.364;2022-12-07T00:25:36;94964.47;;;7.46;86.10
20612;BME280;10465;42.686;23.364;2022-12-07T00:28:02;94954.28;;;7.39;86.25
20612;BME280;10465;42.686;23.364;2022-12-07T00:30:27;94942.81;;;7.30;86.43
20612;BME280;10465;42.686;23.364;2022-12-07T00:32:53;94950.84;;;7.38;86.56
20612;BME280;10465;42.686;23.364;2022-12-07T00:35:18;94977.72;;;7.59;86.33
20612;BME280;10465;42.686;23.364;2022-12-07T00:37:44;94969.78;;;7.40;86.39
20612;BME280;10465;42.686;23.364;2022-12-07T00:40:09;94955.59;;;7.36;86.33
20612;BME280;10465;42.686;23.364;2022-12-07T00:42:35;94938.97;;;7.41;85.98
20612;BME280;10465;42.686;23.364;2022-12-07T00:45:00;94968.53;;;7.57;86.19
20612;BME280;10465;42.686;23.364;2022-12-07T00:47:26;94962.88;;;7.44;86.19
20612;BME280;10465;42.686;23.364;2022-12-07T00:49:51;94979.28;;;7.60;86.40
20612;BME280;10465;42.686;23.364;2022-12-07T00:52:17;94957.28;;;7.51;86.14
20612;BME280;10465;42.686;23.364;2022-12-07T00:54:42;94934.06;;;7.34;86.67
20612;BME280;10465;42.686;23.364;2022-12-07T00:57:08;94966.19;;;7.55;86.77
20612;BME280;10465;42.686;23.364;2022-12-07T00:59:33;94968.75;;;7.60;86.64
20612;BME280;10465;42.686;23.364;2022-12-07T01:01:58;94966.00;;;7.71;86.32
20612;BME280;10465;42.686;23.364;2022-12-07T01:04:24;94963.84;;;7.73;85.90
20612;BME280;10465;42.686;23.364;2022-12-07T01:06:49;94968.34;;;7.72;85.68
20612;BME280;10465;42.686;23.364;2022-12-07T01:09:15;94959.72;;;7.66;86.02
20612;BME280;10465;42.686;23.364;2022-12-07T01:11:40;94932.50;;;7.52;85.86
20612;BME280;10465;42.686;23.364;2022-12-07T01:14:06;94966.84;;;7.66;86.01
20612;BME280;10465;42.686;23.364;2022-12-07T01:16:32;94933.50;;;7.56;85.92
20612;BME280;10465;42.686;23.364;2022-12-07T01:18:58;94959.50;;;7.82;85.92
20612;BME280;10465;42.686;23.364;2022-12-07T01:21:29;94940.34;;;7.76;85.71
20612;BME280;10465;42.686;23.364;2022-12-07T01:23:57;94958.38;;;7.88;85.76
20612;BME280;10465;42.686;23.364;2022-12-07T01:26:24;94958.16;;;7.84;85.77
20612;BME280;10465;42.686;23.364;2022-12-07T01:28:51;94940.88;;;7.78;85.69
20612;BME280;10465;42.686;23.364;2022-12-07T01:31:19;94923.75;;;7.57;85.66
20612;BME280;10465;42.686;23.364;2022-12-07T01:33:47;94906.47;;;7.51;85.69
20612;BME280;10465;42.686;23.364;2022-12-07T01:36:28;94953.75;;;7.80;85.79
20612;BME280;10465;42.686;23.364;2022-12-07T01:38:59;94957.16;;;7.80;85.79
20612;BME280;10465;42.686;23.364;2022-12-07T01:41:28;94947.97;;;7.78;85.71
20612;BME280;10465;42.686;23.364;2022-12-07T01:46:42;94957.94;;;7.81;86.00
20612;BME280;10465;42.686;23.364;2022-12-07T01:49:12;94945.69;;;7.71;85.65
20612;BME280;10465;42.686;23.364;2022-12-07T01:51:40;94917.63;;;7.61;85.89
20612;BME280;10465;42.686;23.364;2022-12-07T01:54:07;94871.72;;;7.30;85.43
20612;BME280;10465;42.686;23.364;2022-12-07T01:56:33;94919.25;;;7.57;85.64
20612;BME280;10465;42.686;23.364;2022-12-07T01:59:00;94934.16;;;7.67;85.99
20612;BME280;10465;42.686;23.364;2022-12-07T02:01:26;94897.41;;;7.38;85.72
20612;BME280;10465;42.686;23.364;2022-12-07T02:03:52;94898.75;;;7.35;85.70
20612;BME280;10465;42.686;23.364;2022-12-07T02:06:20;94931.94;;;7.55;86.34
20612;BME280;10465;42.686;23.364;2022-12-07T02:08:47;94885.91;;;7.29;86.22
20612;BME280;10465;42.686;23.364;2022-12-07T02:11:14;94928.00;;;7.53;86.74
20612;BME280;10465;42.686;23.364;2022-12-07T02:13:42;94907.56;;;7.44;87.00
20612;BME280;10465;42.686;23.364;2022-12-07T02:18:52;94939.13;;;7.68;86.52
20612;BME280;10465;42.686;23.364;2022-12-07T02:29:46;94931.31;;;7.63;86.25
20612;BME280;10465;42.686;23.364;2022-12-07T02:32:21;94899.97;;;7.43;86.24
20612;BME280;10465;42.686;23.364;2022-12-07T02:34:53;94917.69;;;7.56;86.42
20612;BME280;10465;42.686;23.364;2022-12-07T02:37:42;94911.72;;;7.51;86.71
20612;BME280;10465;42.686;23.364;2022-12-07T02:45:56;94888.78;;;7.32;87.40
20612;BME280;10465;42.686;23.364;2022-12-07T02:48:24;94923.97;;;7.60;87.25
20612;BME280;10465;42.686;23.364;2022-12-07T02:50:52;94924.03;;;7.55;87.45
20612;BME280;10465;42.686;23.364;2022-12-07T02:53:36;94910.66;;;7.52;87.22
20612;BME280;10465;42.686;23.364;2022-12-07T03:15:55;94894.13;;;7.46;87.09
20612;BME280;10465;42.686;23.364;2022-12-07T03:18:25;94881.50;;;7.24;87.17
20612;BME280;10465;42.686;23.364;2022-12-07T03:20:55;94899.66;;;7.44;87.07
20612;BME280;10465;42.686;23.364;2022-12-07T03:23:24;94895.19;;;7.45;87.04
20612;BME280;10465;42.686;23.364;2022-12-07T03:25:56;94891.84;;;7.39;86.99
20612;BME280;10465;42.686;23.364;2022-12-07T03:28:27;94892.06;;;7.43;86.81
20612;BME280;10465;42.686;23.364;2022-12-07T03:30:59;94884.16;;;7.43;86.69
20612;BME280;10465;42.686;23.364;2022-12-07T03:35:57;94901.25;;;7.46;86.75
20612;BME280;10465;42.686;23.364;2022-12-07T03:38:40;94892.63;;;7.40;86.70
20612;BME280;10465;42.686;23.364;2022-12-07T03:41:09;94897.00;;;7.50;86.69
20612;BME280;10465;42.686;23.364;2022-12-07T03:43:37;94889.50;;;7.38;87.01
20612;BME280;10465;42.686;23.364;2022-12-07T03:51:24;94823.59;;;7.05;86.96
20612;BME280;10465;42.686;23.364;2022-12-07T03:54:06;94899.91;;;7.48;87.13
20612;BME280;10465;42.686;23.364;2022-12-07T03:56:33;94901.97;;;7.51;86.57
20612;BME280;10465;42.686;23.364;2022-12-07T03:58:59;94899.91;;;7.48;87.77
20612;BME280;10465;42.686;23.364;2022-12-07T04:01:25;94888.00;;;7.51;88.89
20612;BME280;10465;42.686;23.364;2022-12-07T04:03:51;94894.06;;;7.51;87.95
20612;BME280;10465;42.686;23.364;2022-12-07T04:06:16;94875.25;;;7.39;88.10
20612;BME280;10465;42.686;23.364;2022-12-07T04:08:42;94888.50;;;7.53;87.53
20612;BME280;10465;42.686;23.364;2022-12-07T04:11:07;94815.03;;;6.94;87.22
20612;BME280;10465;42.686;23.364;2022-12-07T04:13:33;94863.59;;;7.26;86.87
20612;BME280;10465;42.686;23.364;2022-12-07T04:16:18;94880.31;;;7.35;86.91
20612;BME280;10465;42.686;23.364;2022-12-07T04:18:44;94887.78;;;7.47;87.29
20612;BME280;10465;42.686;23.364;2022-12-07T04:21:09;94848.50;;;7.32;87.47
20612;BME280;10465;42.686;23.364;2022-12-07T04:23:35;94886.03;;;7.42;87.30
20612;BME280;10465;42.686;23.364;2022-12-07T04:26:00;94887.34;;;7.40;87.79
20612;BME280;10465;42.686;23.364;2022-12-07T04:28:26;94826.19;;;6.86;87.86
20612;BME280;10465;42.686;23.364;2022-12-07T04:30:51;94877.16;;;7.14;88.59
20612;BME280;10465;42.686;23.364;2022-12-07T04:33:16;94863.41;;;6.99;88.15
20612;BME280;10465;42.686;23.364;2022-12-07T04:35:43;94862.78;;;7.07;88.20
20612;BME280;10465;42.686;23.364;2022-12-07T04:38:08;94896.53;;;7.24;88.46
20612;BME280;10465;42.686;23.364;2022-12-07T04:40:34;94876.47;;;7.28;88.38
20612;BME280;10465;42.686;23.364;2022-12-07T04:42:59;94840.19;;;7.01;88.25
20612;BME280;10465;42.686;23.364;2022-12-07T04:45:25;94893.00;;;7.33;88.53
20612;BME280;10465;42.686;23.364;2022-12-07T04:47:50;94899.66;;;7.26;88.22
20612;BME280;10465;42.686;23.364;2022-12-07T04:50:16;94866.91;;;7.13;87.60
20612;BME280;10465;42.686;23.364;2022-12-07T04:52:41;94915.69;;;7.29;87.83
20612;BME280;10465;42.686;23.364;2022-12-07T04:55:07;94900.66;;;7.30;87.59
20612;BME280;10465;42.686;23.364;2022-12-07T04:57:32;94897.03;;;7.26;87.68
20612;BME280;10465;42.686;23.364;2022-12-07T04:59:58;94899.22;;;7.18;87.67
20612;BME280;10465;42.686;23.364;2022-12-07T05:02:23;94894.91;;;7.04;87.57
20612;BME280;10465;42.686;23.364;2022-12-07T05:04:49;94876.94;;;6.87;87.71
20612;BME280;10465;42.686;23.364;2022-12-07T05:07:14;94896.28;;;7.01;87.54
20612;BME280;10465;42.686;23.364;2022-12-07T05:09:40;94898.28;;;7.09;87.80
20612;BME280;10465;42.686;23.364;2022-12-07T05:12:05;94885.22;;;6.99;88.45
20612;BME280;10465;42.686;23.364;2022-12-07T05:14:30;94890.78;;;6.98;88.22
20612;BME280;10465;42.686;23.364;2022-12-07T05:16:56;94902.69;;;7.14;88.39
20612;BME280;10465;42.686;23.364;2022-12-07T05:19:21;94904.94;;;7.02;88.51
20612;BME280;10465;42.686;23.364;2022-12-07T05:21:47;94901.53;;;7.01;88.47
20612;BME280;10465;42.686;23.364;2022-12-07T05:24:14;94899.69;;;7.02;88.34
20612;BME280;10465;42.686;23.364;2022-12-07T05:26:40;94894.75;;;6.95;88.80
20612;BME280;10465;42.686;23.364;2022-12-07T05:29:06;94897.44;;;6.90;89.36
20612;BME280;10465;42.686;23.364;2022-12-07T05:31:32;94900.31;;;6.93;89.50
20612;BME280;10465;42.686;23.364;2022-12-07T05:33:57;94894.69;;;7.00;90.06
20612;BME280;10465;42.686;23.364;2022-12-07T05:36:23;94904.44;;;7.00;90.09
20612;BME280;10465;42.686;23.364;2022-12-07T05:38:49;94901.25;;;7.03;89.69
20612;BME280;10465;42.686;23.364;2022-12-07T05:41:17;94844.03;;;6.65;89.27
20612;BME280;10465;42.686;23.364;2022-12-07T05:44:02;94875.88;;;6.88;89.27
20612;BME280;10465;42.686;23.364;2022-12-07T05:46:27;94875.38;;;6.86;89.41
20612;BME280;10465;42.686;23.364;2022-12-07T05:48:53;94847.63;;;6.75;89.31
20612;BME280;10465;42.686;23.364;2022-12-07T05:51:19;94893.66;;;7.01;89.01
20612;BME280;10465;42.686;23.364;2022-12-07T05:53:45;94889.72;;;6.99;88.75
20612;BME280;10465;42.686;23.364;2022-12-07T05:56:10;94889.38;;;7.05;88.44
20612;BME280;10465;42.686;23.364;2022-12-07T05:58:36;94858.59;;;6.82;88.20
20612;BME280;10465;42.686;23.364;2022-12-07T06:01:19;94886.78;;;7.00;88.39
20612;BME280;10465;42.686;23.364;2022-12-07T06:03:45;94890.81;;;6.92;88.57
20612;BME280;10465;42.686;23.364;2022-12-07T06:06:10;94892.75;;;6.87;88.66
20612;BME280;10465;42.686;23.364;2022-12-07T06:08:36;94892.28;;;6.80;89.48
20612;BME280;10465;42.686;23.364;2022-12-07T06:11:01;94895.50;;;6.77;89.64
20612;BME280;10465;42.686;23.364;2022-12-07T06:13:46;94887.91;;;6.70;90.35
20612;BME280;10465;42.686;23.364;2022-12-07T06:16:11;94893.25;;;6.65;90.96
20612;BME280;10465;42.686;23.364;2022-12-07T06:18:37;94895.75;;;6.75;91.42
20612;BME280;10465;42.686;23.364;2022-12-07T06:21:02;94883.66;;;6.74;91.44
20612;BME280;10465;42.686;23.364;2022-12-07T06:23:28;94893.25;;;6.89;91.40
20612;BME280;10465;42.686;23.364;2022-12-07T06:25:53;94833.97;;;6.49;91.10
20612;BME280;10465;42.686;23.364;2022-12-07T06:28:19;94878.41;;;6.74;90.66
20612;BME280;10465;42.686;23.364;2022-12-07T06:30:44;94872.84;;;6.76;90.86
20612;BME280;10465;42.686;23.364;2022-12-07T06:33:09;94844.53;;;6.67;90.30
20612;BME280;10465;42.686;23.364;2022-12-07T06:35:35;94900.09;;;7.09;90.22
20612;BME280;10465;42.686;23.364;2022-12-07T06:38:00;94906.97;;;7.10;90.23
20612;BME280;10465;42.686;23.364;2022-12-07T06:40:26;94894.06;;;7.08;90.05
20612;BME280;10465;42.686;23.364;2022-12-07T06:42:51;94903.47;;;7.14;89.88
20612;BME280;10465;42.686;23.364;2022-12-07T06:45:17;94865.56;;;6.91;90.54
20612;BME280;10465;42.686;23.364;2022-12-07T06:47:42;94901.34;;;7.16;90.07
20612;BME280;10465;42.686;23.364;2022-12-07T06:50:08;94907.97;;;7.33;89.65
20612;BME280;10465;42.686;23.364;2022-12-07T06:52:34;94872.16;;;7.13;88.99
20612;BME280;10465;42.686;23.364;2022-12-07T06:54:59;94834.75;;;6.97;88.70
20612;BME280;10465;42.686;23.364;2022-12-07T06:57:25;94912.28;;;7.48;88.42
20612;BME280;10465;42.686;23.364;2022-12-07T06:59:51;94903.38;;;7.43;87.97
20612;BME280;10465;42.686;23.364;2022-12-07T07:02:17;94897.41;;;7.38;87.93
20612;BME280;10465;42.686;23.364;2022-12-07T07:04:43;94863.59;;;7.26;87.63
20612;BME280;10465;42.686;23.364;2022-12-07T07:07:09;94919.63;;;7.69;87.42
20612;BME280;10465;42.686;23.364;2022-12-07T07:09:34;94911.44;;;7.71;87.07
20612;BME280;10465;42.686;23.364;2022-12-07T07:12:00;94876.69;;;7.50;87.54
20612;BME280;10465;42.686;23.364;2022-12-07T07:14:25;94912.94;;;7.77;87.41
20612;BME280;10465;42.686;23.364;2022-12-07T07:16:51;94860.91;;;7.50;87.51
20612;BME280;10465;42.686;23.364;2022-12-07T07:19:16;94905.88;;;7.91;87.32
20612;BME280;10465;42.686;23.364;2022-12-07T07:21:42;94916.19;;;8.07;85.61
20612;BME280;10465;42.686;23.364;2022-12-07T07:24:07;94900.94;;;8.04;85.09
20612;BME280;10465;42.686;23.364;2022-12-07T07:26:33;94903.88;;;8.02;85.33
20612;BME280;10465;42.686;23.364;2022-12-07T07:28:58;94917.47;;;8.09;85.80
20612;BME280;10465;42.686;23.364;2022-12-07T07:31:24;94921.41;;;8.12;85.86
20612;BME280;10465;42.686;23.364;2022-12-07T07:33:49;94923.34;;;8.06;85.80
20612;BME280;10465;42.686;23.364;2022-12-07T07:36:15;94890.06;;;7.73;85.84
20612;BME280;10465;42.686;23.364;2022-12-07T07:38:40;94925.38;;;8.09;85.59
20612;BME280;10465;42.686;23.364;2022-12-07T07:41:06;94925.97;;;8.06;85.08
20612;BME280;10465;42.686;23.364;2022-12-07T07:43:32;94932.72;;;8.12;85.26
20612;BME280;10465;42.686;23.364;2022-12-07T07:45:57;94928.94;;;8.18;85.21
20612;BME280;10465;42.686;23.364;2022-12-07T07:48:23;94927.91;;;8.33;86.27
20612;BME280;10465;42.686;23.364;2022-12-07T07:50:51;94919.47;;;8.50;85.80
20612;BME280;10465;42.686;23.364;2022-12-07T07:53:16;94895.25;;;8.48;86.15
20612;BME280;10465;42.686;23.364;2022-12-07T07:55:50;94907.41;;;8.77;86.02
20612;BME280;10465;42.686;23.364;2022-12-07T07:58:16;94919.88;;;9.04;83.09
20612;BME280;10465;42.686;23.364;2022-12-07T08:00:41;94914.38;;;9.14;81.20
20612;BME280;10465;42.686;23.364;2022-12-07T08:03:07;94924.66;;;9.29;80.38
20612;BME280;10465;42.686;23.364;2022-12-07T08:05:32;94923.66;;;9.39;79.54
20612;BME280;10465;42.686;23.364;2022-12-07T08:07:58;94911.63;;;9.33;78.73
20612;BME280;10465;42.686;23.364;2022-12-07T08:10:23;94921.63;;;9.36;78.99
20612;BME280;10465;42.686;23.364;2022-12-07T08:12:49;94923.00;;;9.20;79.25
20612;BME280;10465;42.686;23.364;2022-12-07T08:15:32;94905.75;;;8.95;79.87
20612;BME280;10465;42.686;23.364;2022-12-07T08:17:58;94890.81;;;8.90;79.94
20612;BME280;10465;42.686;23.364;2022-12-07T08:20:24;94917.91;;;9.09;80.23
20612;BME280;10465;42.686;23.364;2022-12-07T08:22:49;94919.47;;;9.10;80.32
20612;BME280;10465;42.686;23.364;2022-12-07T08:25:15;94907.81;;;9.11;80.46
20612;BME280;10465;42.686;23.364;2022-12-07T08:27:40;94882.50;;;9.24;79.70
20612;BME280;10465;42.686;23.364;2022-12-07T08:30:06;94921.63;;;9.72;77.67
20612;BME280;10465;42.686;23.364;2022-12-07T08:32:32;94909.06;;;9.91;76.46
20612;BME280;10465;42.686;23.364;2022-12-07T08:34:57;94871.47;;;9.58;76.02
20612;BME280;10465;42.686;23.364;2022-12-07T08:37:22;94900.22;;;9.60;75.95
20612;BME280;10465;42.686;23.364;2022-12-07T08:39:48;94893.22;;;9.41;76.54
20612;BME280;10465;42.686;23.364;2022-12-07T08:42:14;94919.63;;;9.55;76.94
20612;BME280;10465;42.686;23.364;2022-12-07T08:44:39;94912.78;;;9.54;77.28
20612;BME280;10465;42.686;23.364;2022-12-07T08:47:06;94908.00;;;9.43;78.05
20612;BME280;10465;42.686;23.364;2022-12-07T08:49:39;94905.47;;;9.37;78.52
20612;BME280;10465;42.686;23.364;2022-12-07T08:52:06;94895.28;;;9.31;79.09
20612;BME280;10465;42.686;23.364;2022-12-07T08:54:34;94889.72;;;9.19;78.88
20612;BME280;10465;42.686;23.364;2022-12-07T08:57:00;94894.81;;;9.15;79.50
20612;BME280;10465;42.686;23.364;2022-12-07T08:59:26;94843.09;;;8.73;80.13
20612;BME280;10465;42.686;23.364;2022-12-07T09:01:54;94881.31;;;9.03;80.65
20612;BME280;10465;42.686;23.364;2022-12-07T09:04:19;94867.44;;;8.97;79.66
20612;BME280;10465;42.686;23.364;2022-12-07T09:06:45;94887.28;;;9.08;80.41
20612;BME280;10465;42.686;23.364;2022-12-07T09:09:12;94858.44;;;8.84;79.75
20612;BME280;10465;42.686;23.364;2022-12-07T09:11:39;94886.22;;;9.09;80.30
20612;BME280;10465;42.686;23.364;2022-12-07T09:14:04;94884.53;;;9.13;79.84
20612;BME280;10465;42.686;23.364;2022-12-07T09:16:30;94854.34;;;8.92;79.92
20612;BME280;10465;42.686;23.364;2022-12-07T09:18:56;94881.81;;;9.05;79.87
20612;BME280;10465;42.686;23.364;2022-12-07T09:21:21;94853.16;;;8.84;79.78
20612;BME280;10465;42.686;23.364;2022-12-07T09:23:47;94873.69;;;9.01;80.22
20612;BME280;10465;42.686;23.364;2022-12-07T09:26:12;94859.81;;;8.96;80.73
20612;BME280;10465;42.686;23.364;2022-12-07T09:28:38;94878.28;;;9.09;80.32
20612;BME280;10465;42.686;23.364;2022-12-07T09:31:04;94865.41;;;9.08;80.76
20612;BME280;10465;42.686;23.364;2022-12-07T09:33:30;94865.28;;;9.13;80.58
20612;BME280;10465;42.686;23.364;2022-12-07T09:35:55;94803.00;;;8.71;80.51
20612;BME280;10465;42.686;23.364;2022-12-07T09:38:21;94856.84;;;9.11;81.11
20612;BME280;10465;42.686;23.364;2022-12-07T09:40:46;94850.41;;;9.17;80.42
20612;BME280;10465;42.686;23.364;2022-12-07T09:43:15;94827.25;;;9.00;80.57
20612;BME280;10465;42.686;23.364;2022-12-07T09:45:43;94851.06;;;9.23;80.44
20612;BME280;10465;42.686;23.364;2022-12-07T09:48:31;94852.16;;;9.22;80.49
20612;BME280;10465;42.686;23.364;2022-12-07T09:50:59;94848.34;;;9.28;80.25
20612;BME280;10465;42.686;23.364;2022-12-07T09:53:26;94845.41;;;9.29;80.26
20612;BME280;10465;42.686;23.364;2022-12-07T09:55:53;94820.84;;;9.15;79.61
20612;BME280;10465;42.686;23.364;2022-12-07T09:58:22;94842.06;;;9.37;79.52
20612;BME280;10465;42.686;23.364;2022-12-07T10:00:51;94830.13;;;9.40;78.89
20612;BME280;10465;42.686;23.364;2022-12-07T10:03:18;94821.50;;;9.34;78.74
20612;BME280;10465;42.686;23.364;2022-12-07T10:05:48;94800.19;;;9.31;78.34
20612;BME280;10465;42.686;23.364;2022-12-07T10:08:14;94833.69;;;9.58;78.59
20612;BME280;10465;42.686;23.364;2022-12-07T10:10:43;94826.41;;;9.63;78.69
20612;BME280;10465;42.686;23.364;2022-12-07T10:13:14;94821.38;;;9.76;78.50
20612;BME280;10465;42.686;23.364;2022-12-07T10:15:57;94826.38;;;9.77;78.05
20612;BME280;10465;42.686;23.364;2022-12-07T10:21:08;94813.03;;;9.82;77.22
20612;BME280;10465;42.686;23.364;2022-12-07T10:23:37;94817.91;;;9.89;77.35
20612;BME280;10465;42.686;23.364;2022-12-07T10:26:21;94809.25;;;9.97;77.01
20612;BME280;10465;42.686;23.364;2022-12-07T10:28:47;94784.78;;;9.91;76.54
20612;BME280;10465;42.686;23.364;2022-12-07T10:31:19;94764.31;;;9.97;75.08
20612;BME280;10465;42.686;23.364;2022-12-07T10:33:57;94801.44;;;10.46;74.43
20612;BME280;10465;42.686;23.364;2022-12-07T10:36:24;94792.34;;;10.69;73.68
20612;BME280;10465;42.686;23.364;2022-12-07T10:39:00;94780.34;;;10.72;72.26
20612;BME280;10465;42.686;23.364;2022-12-07T10:41:25;94707.28;;;10.13;72.28
20612;BME280;10465;42.686;23.364;2022-12-07T10:43:56;94770.16;;;10.48;73.03
20612;BME280;10465;42.686;23.364;2022-12-07T10:46:41;94781.50;;;10.39;73.45
20612;BME280;10465;42.686;23.364;2022-12-07T10:57:36;94780.72;;;10.39;74.26
20612;BME280;10465;42.686;23.364;2022-12-07T11:00:23;94773.41;;;10.45;74.72
20612;BME280;10465;42.686;23.364;2022-12-07T11:03:23;94763.16;;;10.52;74.48
20612;BME280;10465;42.686;23.364;2022-12-07T11:14:38;94759.34;;;10.75;73.48
20612;BME280;10465;42.686;23.364;2022-12-07T11:20:28;94757.66;;;10.79;73.13
20612;BME280;10465;42.686;23.364;2022-12-07T11:29:09;94737.22;;;10.71;73.84
20612;BME280;10465;42.686;23.364;2022-12-07T11:37:27;94712.47;;;10.93;74.04
20612;BME280;10465;42.686;23.364;2022-12-07T11:40:30;94720.44;;;11.54;71.68
20612;BME280;10465;42.686;23.364;2022-12-07T11:43:15;94704.94;;;11.82;70.35
20612;BME280;10465;42.686;23.364;2022-12-07T11:45:46;94690.44;;;11.97;69.15
20612;BME280;10465;42.686;23.364;2022-12-07T11:48:35;94710.84;;;12.05;68.26
20612;BME280;10465;42.686;23.364;2022-12-07T11:51:00;94688.59;;;11.71;67.90
20612;BME280;10465;42.686;23.364;2022-12-07T11:53:37;94704.03;;;11.78;68.81
20612;BME280;10465;42.686;23.364;2022-12-07T11:56:09;94715.38;;;12.04;67.86
20612;BME280;10465;42.686;23.364;2022-12-07T12:06:39;94698.63;;;15.07;56.36
20612;BME280;10465;42.686;23.364;2022-12-07T12:09:33;94686.50;;;15.10;54.83
20612;BME280;10465;42.686;23.364;2022-12-07T12:12:11;94695.78;;;14.64;55.75
20612;BME280;10465;42.686;23.364;2022-12-07T12:15:03;94686.13;;;13.77;58.15
20612;BME280;10465;42.686;23.364;2022-12-07T12:20:50;94672.50;;;12.61;62.82
20612;BME280;10465;42.686;23.364;2022-12-07T12:23:22;94664.22;;;12.33;63.96
20612;BME280;10465;42.686;23.364;2022-12-07T12:25:54;94665.25;;;12.11;64.81
20612;BME280;10465;42.686;23.364;2022-12-07T12:31:16;94669.09;;;11.84;66.48
20612;BME280;10465;42.686;23.364;2022-12-07T12:33:58;94668.81;;;11.69;67.35
20612;BME280;10465;42.686;23.364;2022-12-07T12:54:22;94618.97;;;11.45;69.60
20612;BME280;10465;42.686;23.364;2022-12-07T12:59:31;94636.66;;;11.87;68.30
20612;BME280;10465;42.686;23.364;2022-12-07T13:15:40;94651.66;;;12.72;65.73
20612;BME280;10465;42.686;23.364;2022-12-07T13:23:38;94648.81;;;12.77;65.69
20612;BME280;10465;42.686;23.364;2022-12-07T13:26:35;94649.38;;;12.62;66.11
20612;BME280;10465;42.686;23.364;2022-12-07T13:34:03;94638.47;;;12.55;66.48
20612;BME280;10465;42.686;23.364;2022-12-07T13:36:37;94606.03;;;12.28;66.88
20612;BME280;10465;42.686;23.364;2022-12-07T13:39:18;94624.22;;;12.38;66.70
20612;BME280;10465;42.686;23.364;2022-12-07T13:41:48;94639.41;;;12.29;67.48
20612;BME280;10465;42.686;23.364;2022-12-07T13:44:17;94631.94;;;12.23;67.73
20612;BME280;10465;42.686;23.364;2022-12-07T13:49:26;94635.31;;;12.02;68.69
20612;BME280;10465;42.686;23.364;2022-12-07T13:51:52;94633.47;;;11.94;68.98
20612;BME280;10465;42.686;23.364;2022-12-07T13:54:20;94629.75;;;11.95;69.32
20612;BME280;10465;42.686;23.364;2022-12-07T13:56:50;94626.28;;;12.03;69.23
20612;BME280;10465;42.686;23.364;2022-12-07T13:59:19;94627.66;;;12.09;69.13
20612;BME280;10465;42.686;23.364;2022-12-07T14:01:47;94619.72;;;12.01;68.94
20612;BME280;10465;42.686;23.364;2022-12-07T14:04:37;94613.56;;;11.88;69.18
20612;BME280;10465;42.686;23.364;2022-12-07T14:07:23;94625.47;;;12.11;68.90
20612;BME280;10465;42.686;23.364;2022-12-07T14:10:25;94630.41;;;12.22;69.13
20612;BME280;10465;42.686;23.364;2022-12-07T14:12:51;94618.72;;;12.14;69.34
20612;BME280;10465;42.686;23.364;2022-12-07T14:15:22;94632.59;;;12.20;69.66
20612;BME280;10465;42.686;23.364;2022-12-07T14:17:54;94615.06;;;11.98;70.31
20612;BME280;10465;42.686;23.364;2022-12-07T14:22:56;94628.75;;;12.08;69.95
20612;BME280;10465;42.686;23.364;2022-12-07T14:25:24;94636.09;;;12.03;69.57
20612;BME280;10465;42.686;23.364;2022-12-07T14:28:00;94642.34;;;11.98;69.67
20612;BME280;10465;42.686;23.364;2022-12-07T14:30:28;94646.00;;;11.85;70.08
20612;BME280;10465;42.686;23.364;2022-12-07T14:33:02;94637.56;;;11.74;70.22
20612;BME280;10465;42.686;23.364;2022-12-07T14:35:28;94635.88;;;11.70;70.30
20612;BME280;10465;42.686;23.364;2022-12-07T14:37:54;94626.84;;;11.62;71.03
20612;BME280;10465;42.686;23.364;2022-12-07T14:40:28;94630.81;;;11.47;71.53
20612;BME280;10465;42.686;23.364;2022-12-07T14:43:00;94584.28;;;11.11;71.62
20612;BME280;10465;42.686;23.364;2022-12-07T14:45:27;94636.75;;;11.35;72.49
20612;BME280;10465;42.686;23.364;2022-12-07T14:47:53;94633.78;;;11.37;73.20
20612;BME280;10465;42.686;23.364;2022-12-07T14:50:19;94616.66;;;11.17;73.71
20612;BME280;10465;42.686;23.364;2022-12-07T14:52:56;94629.91;;;11.26;74.11
20612;BME280;10465;42.686;23.364;2022-12-07T14:55:30;94559.84;;;10.80;74.26
20612;BME280;10465;42.686;23.364;2022-12-07T14:57:56;94599.06;;;11.04;74.14
20612;BME280;10465;42.686;23.364;2022-12-07T15:00:24;94626.97;;;11.19;74.76
20612;BME280;10465;42.686;23.364;2022-12-07T15:02:50;94596.13;;;10.88;74.61
20612;BME280;10465;42.686;23.364;2022-12-07T15:05:17;94640.84;;;11.16;74.81
20612;BME280;10465;42.686;23.364;2022-12-07T15:07:43;94637.72;;;11.05;74.35
20612;BME280;10465;42.686;23.364;2022-12-07T15:12:45;94605.63;;;10.80;74.75
20612;BME280;10465;42.686;23.364;2022-12-07T15:15:11;94653.13;;;11.20;73.90
20612;BME280;10465;42.686;23.364;2022-12-07T15:17:37;94647.38;;;11.01;74.86
20612;BME280;10465;42.686;23.364;2022-12-07T15:20:03;94658.59;;;10.98;75.36
20612;BME280;10465;42.686;23.364;2022-12-07T15:22:28;94636.31;;;10.73;75.86
20612;BME280;10465;42.686;23.364;2022-12-07T15:24:56;94647.38;;;10.75;76.62
20612;BME280;10465;42.686;23.364;2022-12-07T15:27:22;94645.97;;;10.69;76.62
20612;BME280;10465;42.686;23.364;2022-12-07T15:29:47;94637.84;;;10.65;76.74
20612;BME280;10465;42.686;23.364;2022-12-07T15:32:13;94623.84;;;10.56;76.82
20612;BME280;10465;42.686;23.364;2022-12-07T15:34:38;94628.66;;;10.45;77.63
20612;BME280;10465;42.686;23.364;2022-12-07T15:37:04;94654.22;;;10.67;76.87